sensor_id;sensor_type;location;lat;lon;timestamp;P1;durP1;ratioP1;P2;durP2;ratioP2
22334;SDS011;11335;43.848;25.958;2022-07-23T00:02:21;13.15;;;5.00;;
22334;SDS011;11335;43.848;25.958;2022-07-23T00:05:08;11.25;;;5.10;;
22334;SDS011;11335;43.848;25.958;2022-07-23T00:07:54;11.55;;;5.00;;
22334;SDS011;11335;43.848;25.958;2022-07-23T00:10:40;11.35;;;5.32;;
22334;SDS011;11335;43.848;25.958;2022-07-23T00:13:26;12.23;;;5.18;;
22334;SDS011;11335;43.848;25.958;2022-07-23T00:16:13;8.80;;;5.15;;
22334;SDS011;11335;43.848;25.958;2022-07-23T00:18:59;7.72;;;4.63;;
22334;SDS011;11335;43.848;25.958;2022-07-23T00:21:46;9.32;;;5.05;;
22334;SDS011;11335;43.848;25.958;2022-07-23T00:24:32;9.85;;;5.10;;
22334;SDS011;11335;43.848;25.958;2022-07-23T00:27:18;8.25;;;5.30;;
22334;SDS011;11335;43.848;25.958;2022-07-23T00:30:03;10.70;;;4.93;;
22334;SDS011;11335;43.848;25.958;2022-07-23T00:32:52;6.53;;;4.93;;
22334;SDS011;11335;43.848;25.958;2022-07-23T00:35:41;11.75;;;5.05;;
22334;SDS011;11335;43.848;25.958;2022-07-23T00:38:27;12.90;;;5.35;;
22334;SDS011;11335;43.848;25.958;2022-07-23T00:41:13;13.05;;;5.75;;
22334;SDS011;11335;43.848;25.958;2022-07-23T00:44:18;9.45;;;5.70;;
22334;SDS011;11335;43.848;25.958;2022-07-23T00:47:04;16.70;;;5.88;;
22334;SDS011;11335;43.848;25.958;2022-07-23T00:49:51;15.13;;;5.68;;
22334;SDS011;11335;43.848;25.958;2022-07-23T00:52:37;17.65;;;6.10;;
22334;SDS011;11335;43.848;25.958;2022-07-23T00:55:23;15.05;;;5.93;;
22334;SDS011;11335;43.848;25.958;2022-07-23T00:58:09;13.30;;;5.88;;
22334;SDS011;11335;43.848;25.958;2022-07-23T01:00:56;11.20;;;5.65;;
22334;SDS011;11335;43.848;25.958;2022-07-23T01:03:42;11.52;;;5.70;;
22334;SDS011;11335;43.848;25.958;2022-07-23T01:06:28;13.20;;;5.28;;
22334;SDS011;11335;43.848;25.958;2022-07-23T01:09:14;12.52;;;5.22;;
22334;SDS011;11335;43.848;25.958;2022-07-23T01:12:00;16.73;;;5.47;;
22334;SDS011;11335;43.848;25.958;2022-07-23T01:14:56;11.07;;;5.13;;
22334;SDS011;11335;43.848;25.958;2022-07-23T01:17:45;12.15;;;4.63;;
22334;SDS011;11335;43.848;25.958;2022-07-23T01:20:31;13.07;;;4.90;;
22334;SDS011;11335;43.848;25.958;2022-07-23T01:23:17;12.82;;;5.07;;
22334;SDS011;11335;43.848;25.958;2022-07-23T01:26:03;11.68;;;5.10;;
22334;SDS011;11335;43.848;25.958;2022-07-23T01:28:49;14.68;;;5.30;;
22334;SDS011;11335;43.848;25.958;2022-07-23T01:31:34;12.25;;;5.45;;
22334;SDS011;11335;43.848;25.958;2022-07-23T01:34:20;9.93;;;4.78;;
22334;SDS011;11335;43.848;25.958;2022-07-23T01:37:06;11.85;;;5.18;;
22334;SDS011;11335;43.848;25.958;2022-07-23T01:39:52;14.45;;;4.72;;
22334;SDS011;11335;43.848;25.958;2022-07-23T01:42:38;9.25;;;4.45;;
22334;SDS011;11335;43.848;25.958;2022-07-23T01:45:23;8.75;;;4.22;;
22334;SDS011;11335;43.848;25.958;2022-07-23T01:48:09;8.07;;;3.92;;
22334;SDS011;11335;43.848;25.958;2022-07-23T01:50:55;11.50;;;4.13;;
22334;SDS011;11335;43.848;25.958;2022-07-23T01:53:41;5.45;;;3.53;;
22334;SDS011;11335;43.848;25.958;2022-07-23T01:56:27;5.38;;;3.72;;
22334;SDS011;11335;43.848;25.958;2022-07-23T01:59:13;7.82;;;3.53;;
22334;SDS011;11335;43.848;25.958;2022-07-23T02:01:58;11.80;;;4.40;;
22334;SDS011;11335;43.848;25.958;2022-07-23T02:04:44;8.55;;;3.80;;
22334;SDS011;11335;43.848;25.958;2022-07-23T02:07:30;8.00;;;3.55;;
22334;SDS011;11335;43.848;25.958;2022-07-23T02:10:16;7.82;;;3.22;;
22334;SDS011;11335;43.848;25.958;2022-07-23T02:13:01;9.63;;;3.70;;
22334;SDS011;11335;43.848;25.958;2022-07-23T02:15:47;8.07;;;3.20;;
22334;SDS011;11335;43.848;25.958;2022-07-23T02:18:33;5.78;;;3.30;;
22334;SDS011;11335;43.848;25.958;2022-07-23T02:21:19;9.15;;;3.35;;
22334;SDS011;11335;43.848;25.958;2022-07-23T02:24:05;7.72;;;3.63;;
22334;SDS011;11335;43.848;25.958;2022-07-23T02:26:50;5.93;;;3.45;;
22334;SDS011;11335;43.848;25.958;2022-07-23T02:29:36;9.40;;;4.20;;
22334;SDS011;11335;43.848;25.958;2022-07-23T02:32:22;10.77;;;3.95;;
22334;SDS011;11335;43.848;25.958;2022-07-23T02:35:08;14.23;;;4.07;;
22334;SDS011;11335;43.848;25.958;2022-07-23T02:37:54;11.43;;;4.50;;
22334;SDS011;11335;43.848;25.958;2022-07-23T02:40:39;11.85;;;4.30;;
22334;SDS011;11335;43.848;25.958;2022-07-23T02:43:25;9.18;;;4.22;;
22334;SDS011;11335;43.848;25.958;2022-07-23T02:46:11;11.57;;;4.13;;
22334;SDS011;11335;43.848;25.958;2022-07-23T02:48:57;5.90;;;3.58;;
22334;SDS011;11335;43.848;25.958;2022-07-23T02:51:42;12.27;;;4.13;;
22334;SDS011;11335;43.848;25.958;2022-07-23T02:54:28;7.72;;;3.70;;
22334;SDS011;11335;43.848;25.958;2022-07-23T02:57:14;5.97;;;3.65;;
22334;SDS011;11335;43.848;25.958;2022-07-23T03:00:00;9.48;;;3.67;;
22334;SDS011;11335;43.848;25.958;2022-07-23T03:02:45;14.13;;;4.10;;
22334;SDS011;11335;43.848;25.958;2022-07-23T03:05:31;5.35;;;3.88;;
22334;SDS011;11335;43.848;25.958;2022-07-23T03:08:17;10.32;;;4.13;;
22334;SDS011;11335;43.848;25.958;2022-07-23T03:11:03;8.05;;;3.90;;
22334;SDS011;11335;43.848;25.958;2022-07-23T03:13:48;9.88;;;4.30;;
22334;SDS011;11335;43.848;25.958;2022-07-23T03:16:34;10.30;;;4.50;;
22334;SDS011;11335;43.848;25.958;2022-07-23T03:19:20;9.90;;;4.10;;
22334;SDS011;11335;43.848;25.958;2022-07-23T03:22:06;8.00;;;4.43;;
22334;SDS011;11335;43.848;25.958;2022-07-23T03:24:52;15.50;;;5.50;;
22334;SDS011;11335;43.848;25.958;2022-07-23T03:27:41;14.60;;;5.57;;
22334;SDS011;11335;43.848;25.958;2022-07-23T03:30:26;14.77;;;6.60;;
22334;SDS011;11335;43.848;25.958;2022-07-23T03:33:12;14.55;;;6.70;;
22334;SDS011;11335;43.848;25.958;2022-07-23T03:35:59;13.07;;;6.93;;
22334;SDS011;11335;43.848;25.958;2022-07-23T03:38:44;19.95;;;7.15;;
22334;SDS011;11335;43.848;25.958;2022-07-23T03:41:30;23.08;;;9.77;;
22334;SDS011;11335;43.848;25.958;2022-07-23T03:44:16;26.58;;;12.13;;
22334;SDS011;11335;43.848;25.958;2022-07-23T03:47:02;35.72;;;14.30;;
22334;SDS011;11335;43.848;25.958;2022-07-23T03:49:49;42.03;;;18.17;;
22334;SDS011;11335;43.848;25.958;2022-07-23T03:52:35;60.05;;;19.45;;
22334;SDS011;11335;43.848;25.958;2022-07-23T03:55:21;59.30;;;20.85;;
22334;SDS011;11335;43.848;25.958;2022-07-23T03:58:06;53.83;;;19.48;;
22334;SDS011;11335;43.848;25.958;2022-07-23T04:00:52;56.20;;;20.23;;
22334;SDS011;11335;43.848;25.958;2022-07-23T04:03:38;47.95;;;19.00;;
22334;SDS011;11335;43.848;25.958;2022-07-23T04:06:24;37.47;;;16.33;;
22334;SDS011;11335;43.848;25.958;2022-07-23T04:09:10;46.00;;;14.93;;
22334;SDS011;11335;43.848;25.958;2022-07-23T04:11:57;39.53;;;12.75;;
22334;SDS011;11335;43.848;25.958;2022-07-23T04:14:42;21.00;;;10.38;;
22334;SDS011;11335;43.848;25.958;2022-07-23T04:17:28;17.33;;;8.82;;
22334;SDS011;11335;43.848;25.958;2022-07-23T04:20:14;18.20;;;8.63;;
22334;SDS011;11335;43.848;25.958;2022-07-23T04:23:00;27.17;;;10.35;;
22334;SDS011;11335;43.848;25.958;2022-07-23T04:25:46;29.38;;;11.00;;
22334;SDS011;11335;43.848;25.958;2022-07-23T04:28:31;25.88;;;10.38;;
22334;SDS011;11335;43.848;25.958;2022-07-23T04:31:17;26.90;;;10.32;;
22334;SDS011;11335;43.848;25.958;2022-07-23T04:34:03;23.77;;;10.00;;
22334;SDS011;11335;43.848;25.958;2022-07-23T04:36:48;28.42;;;11.15;;
22334;SDS011;11335;43.848;25.958;2022-07-23T04:39:34;28.15;;;11.15;;
22334;SDS011;11335;43.848;25.958;2022-07-23T04:42:20;29.17;;;11.43;;
22334;SDS011;11335;43.848;25.958;2022-07-23T04:45:06;28.15;;;11.50;;
22334;SDS011;11335;43.848;25.958;2022-07-23T04:47:52;25.85;;;11.82;;
22334;SDS011;11335;43.848;25.958;2022-07-23T04:50:38;27.60;;;11.82;;
22334;SDS011;11335;43.848;25.958;2022-07-23T04:53:23;23.88;;;9.70;;
22334;SDS011;11335;43.848;25.958;2022-07-23T04:56:09;18.25;;;8.02;;
22334;SDS011;11335;43.848;25.958;2022-07-23T04:58:55;20.98;;;7.45;;
22334;SDS011;11335;43.848;25.958;2022-07-23T05:01:41;21.50;;;7.72;;
22334;SDS011;11335;43.848;25.958;2022-07-23T05:04:27;21.05;;;6.63;;
22334;SDS011;11335;43.848;25.958;2022-07-23T05:07:13;12.32;;;5.75;;
22334;SDS011;11335;43.848;25.958;2022-07-23T05:09:58;12.05;;;5.43;;
22334;SDS011;11335;43.848;25.958;2022-07-23T05:12:44;17.08;;;5.95;;
22334;SDS011;11335;43.848;25.958;2022-07-23T05:15:30;16.38;;;5.50;;
22334;SDS011;11335;43.848;25.958;2022-07-23T05:18:16;17.60;;;5.13;;
22334;SDS011;11335;43.848;25.958;2022-07-23T05:21:02;13.75;;;5.00;;
22334;SDS011;11335;43.848;25.958;2022-07-23T05:23:47;8.75;;;4.18;;
22334;SDS011;11335;43.848;25.958;2022-07-23T05:26:33;8.35;;;4.00;;
22334;SDS011;11335;43.848;25.958;2022-07-23T05:29:19;7.82;;;4.47;;
22334;SDS011;11335;43.848;25.958;2022-07-23T05:32:05;7.82;;;4.40;;
22334;SDS011;11335;43.848;25.958;2022-07-23T05:34:50;5.85;;;4.00;;
22334;SDS011;11335;43.848;25.958;2022-07-23T05:37:36;6.93;;;4.05;;
22334;SDS011;11335;43.848;25.958;2022-07-23T05:40:22;6.93;;;4.43;;
22334;SDS011;11335;43.848;25.958;2022-07-23T05:43:08;7.57;;;4.05;;
22334;SDS011;11335;43.848;25.958;2022-07-23T05:45:54;9.00;;;4.50;;
22334;SDS011;11335;43.848;25.958;2022-07-23T05:48:39;10.77;;;4.80;;
22334;SDS011;11335;43.848;25.958;2022-07-23T05:51:26;11.95;;;4.60;;
22334;SDS011;11335;43.848;25.958;2022-07-23T05:54:12;8.23;;;4.60;;
22334;SDS011;11335;43.848;25.958;2022-07-23T05:56:58;10.55;;;4.22;;
22334;SDS011;11335;43.848;25.958;2022-07-23T05:59:43;14.40;;;4.13;;
22334;SDS011;11335;43.848;25.958;2022-07-23T06:02:29;13.23;;;4.20;;
22334;SDS011;11335;43.848;25.958;2022-07-23T06:05:15;13.90;;;4.88;;
22334;SDS011;11335;43.848;25.958;2022-07-23T06:08:01;10.55;;;4.32;;
22334;SDS011;11335;43.848;25.958;2022-07-23T06:10:47;12.07;;;4.55;;
22334;SDS011;11335;43.848;25.958;2022-07-23T06:13:32;9.13;;;5.20;;
22334;SDS011;11335;43.848;25.958;2022-07-23T06:16:18;8.63;;;4.75;;
22334;SDS011;11335;43.848;25.958;2022-07-23T06:19:04;8.75;;;5.18;;
22334;SDS011;11335;43.848;25.958;2022-07-23T06:21:50;11.10;;;4.95;;
22334;SDS011;11335;43.848;25.958;2022-07-23T06:24:36;12.02;;;5.65;;
22334;SDS011;11335;43.848;25.958;2022-07-23T06:27:22;10.45;;;6.40;;
22334;SDS011;11335;43.848;25.958;2022-07-23T06:30:08;17.55;;;7.22;;
22334;SDS011;11335;43.848;25.958;2022-07-23T06:32:55;13.13;;;6.53;;
22334;SDS011;11335;43.848;25.958;2022-07-23T06:35:41;11.93;;;6.45;;
22334;SDS011;11335;43.848;25.958;2022-07-23T06:38:27;18.73;;;6.97;;
22334;SDS011;11335;43.848;25.958;2022-07-23T06:41:12;13.52;;;6.70;;
22334;SDS011;11335;43.848;25.958;2022-07-23T06:43:58;14.32;;;6.22;;
22334;SDS011;11335;43.848;25.958;2022-07-23T06:46:44;20.77;;;10.45;;
22334;SDS011;11335;43.848;25.958;2022-07-23T06:49:30;14.75;;;6.47;;
22334;SDS011;11335;43.848;25.958;2022-07-23T06:52:15;10.38;;;5.80;;
22334;SDS011;11335;43.848;25.958;2022-07-23T06:55:01;10.38;;;5.88;;
22334;SDS011;11335;43.848;25.958;2022-07-23T06:57:47;21.52;;;6.18;;
22334;SDS011;11335;43.848;25.958;2022-07-23T07:00:33;14.02;;;6.18;;
22334;SDS011;11335;43.848;25.958;2022-07-23T07:03:19;14.10;;;6.20;;
22334;SDS011;11335;43.848;25.958;2022-07-23T07:06:05;16.88;;;5.97;;
22334;SDS011;11335;43.848;25.958;2022-07-23T07:08:50;15.65;;;5.97;;
22334;SDS011;11335;43.848;25.958;2022-07-23T07:11:36;12.98;;;5.68;;
22334;SDS011;11335;43.848;25.958;2022-07-23T07:14:22;12.00;;;5.75;;
22334;SDS011;11335;43.848;25.958;2022-07-23T07:17:08;12.60;;;5.70;;
22334;SDS011;11335;43.848;25.958;2022-07-23T07:19:56;8.52;;;5.63;;
22334;SDS011;11335;43.848;25.958;2022-07-23T07:22:41;55.08;;;13.73;;
22334;SDS011;11335;43.848;25.958;2022-07-23T07:25:35;17.10;;;6.65;;
22334;SDS011;11335;43.848;25.958;2022-07-23T07:28:21;9.73;;;5.88;;
22334;SDS011;11335;43.848;25.958;2022-07-23T07:31:06;12.90;;;6.15;;
22334;SDS011;11335;43.848;25.958;2022-07-23T07:33:52;12.82;;;5.85;;
22334;SDS011;11335;43.848;25.958;2022-07-23T07:36:38;11.95;;;5.68;;
22334;SDS011;11335;43.848;25.958;2022-07-23T07:39:24;10.73;;;5.90;;
22334;SDS011;11335;43.848;25.958;2022-07-23T07:42:09;17.85;;;6.15;;
22334;SDS011;11335;43.848;25.958;2022-07-23T07:44:55;14.85;;;6.22;;
22334;SDS011;11335;43.848;25.958;2022-07-23T07:47:41;10.35;;;6.70;;
22334;SDS011;11335;43.848;25.958;2022-07-23T07:50:27;14.90;;;5.95;;
22334;SDS011;11335;43.848;25.958;2022-07-23T07:53:13;11.60;;;6.28;;
22334;SDS011;11335;43.848;25.958;2022-07-23T07:55:59;10.65;;;6.10;;
22334;SDS011;11335;43.848;25.958;2022-07-23T07:58:44;14.32;;;6.40;;
22334;SDS011;11335;43.848;25.958;2022-07-23T08:01:30;17.35;;;6.75;;
22334;SDS011;11335;43.848;25.958;2022-07-23T08:04:16;19.52;;;6.78;;
22334;SDS011;11335;43.848;25.958;2022-07-23T08:07:02;16.98;;;6.80;;
22334;SDS011;11335;43.848;25.958;2022-07-23T08:09:48;18.85;;;6.55;;
22334;SDS011;11335;43.848;25.958;2022-07-23T08:12:41;17.05;;;6.57;;
22334;SDS011;11335;43.848;25.958;2022-07-23T08:15:30;17.98;;;6.25;;
22334;SDS011;11335;43.848;25.958;2022-07-23T08:18:16;14.18;;;6.00;;
22334;SDS011;11335;43.848;25.958;2022-07-23T08:21:02;12.32;;;5.82;;
22334;SDS011;11335;43.848;25.958;2022-07-23T08:23:50;18.88;;;6.50;;
22334;SDS011;11335;43.848;25.958;2022-07-23T08:26:36;14.43;;;5.75;;
22334;SDS011;11335;43.848;25.958;2022-07-23T08:29:22;14.02;;;6.07;;
22334;SDS011;11335;43.848;25.958;2022-07-23T08:32:08;14.60;;;5.90;;
22334;SDS011;11335;43.848;25.958;2022-07-23T08:34:53;14.18;;;5.93;;
22334;SDS011;11335;43.848;25.958;2022-07-23T08:37:39;8.70;;;5.18;;
22334;SDS011;11335;43.848;25.958;2022-07-23T08:40:25;9.52;;;5.25;;
22334;SDS011;11335;43.848;25.958;2022-07-23T08:43:14;17.63;;;5.50;;
22334;SDS011;11335;43.848;25.958;2022-07-23T08:46:04;8.85;;;4.90;;
22334;SDS011;11335;43.848;25.958;2022-07-23T08:48:50;9.98;;;5.28;;
22334;SDS011;11335;43.848;25.958;2022-07-23T08:51:36;8.73;;;4.90;;
22334;SDS011;11335;43.848;25.958;2022-07-23T08:54:22;12.77;;;4.70;;
22334;SDS011;11335;43.848;25.958;2022-07-23T08:57:08;12.13;;;4.90;;
22334;SDS011;11335;43.848;25.958;2022-07-23T08:59:53;10.15;;;4.10;;
22334;SDS011;11335;43.848;25.958;2022-07-23T09:02:40;11.90;;;4.15;;
22334;SDS011;11335;43.848;25.958;2022-07-23T09:05:27;8.77;;;3.70;;
22334;SDS011;11335;43.848;25.958;2022-07-23T09:08:13;10.18;;;3.95;;
22334;SDS011;11335;43.848;25.958;2022-07-23T09:11:00;6.70;;;3.80;;
22334;SDS011;11335;43.848;25.958;2022-07-23T09:13:48;11.77;;;4.68;;
22334;SDS011;11335;43.848;25.958;2022-07-23T09:16:35;5.60;;;3.70;;
22334;SDS011;11335;43.848;25.958;2022-07-23T09:19:22;8.27;;;3.83;;
22334;SDS011;11335;43.848;25.958;2022-07-23T09:22:19;11.32;;;4.10;;
22334;SDS011;11335;43.848;25.958;2022-07-23T09:25:18;9.57;;;4.50;;
22334;SDS011;11335;43.848;25.958;2022-07-23T09:28:04;7.95;;;4.10;;
22334;SDS011;11335;43.848;25.958;2022-07-23T09:30:52;8.38;;;3.90;;
22334;SDS011;11335;43.848;25.958;2022-07-23T09:33:38;6.97;;;4.15;;
22334;SDS011;11335;43.848;25.958;2022-07-23T09:36:27;10.23;;;4.40;;
22334;SDS011;11335;43.848;25.958;2022-07-23T09:39:15;11.52;;;4.30;;
22334;SDS011;11335;43.848;25.958;2022-07-23T09:45:06;12.13;;;3.83;;
22334;SDS011;11335;43.848;25.958;2022-07-23T09:48:15;9.23;;;4.20;;
22334;SDS011;11335;43.848;25.958;2022-07-23T09:51:02;6.82;;;3.83;;
22334;SDS011;11335;43.848;25.958;2022-07-23T09:53:50;11.80;;;4.50;;
22334;SDS011;11335;43.848;25.958;2022-07-23T09:56:36;7.68;;;4.65;;
22334;SDS011;11335;43.848;25.958;2022-07-23T09:59:23;9.07;;;4.35;;
22334;SDS011;11335;43.848;25.958;2022-07-23T10:02:12;11.20;;;4.18;;
22334;SDS011;11335;43.848;25.958;2022-07-23T10:04:59;8.75;;;4.20;;
22334;SDS011;11335;43.848;25.958;2022-07-23T10:07:47;9.30;;;4.18;;
22334;SDS011;11335;43.848;25.958;2022-07-23T10:10:33;9.82;;;4.65;;
22334;SDS011;11335;43.848;25.958;2022-07-23T10:13:19;11.15;;;4.60;;
22334;SDS011;11335;43.848;25.958;2022-07-23T10:16:24;11.13;;;4.50;;
22334;SDS011;11335;43.848;25.958;2022-07-23T10:19:11;9.13;;;4.38;;
22334;SDS011;11335;43.848;25.958;2022-07-23T10:22:02;14.48;;;4.65;;
22334;SDS011;11335;43.848;25.958;2022-07-23T10:31:14;8.38;;;4.45;;
22334;SDS011;11335;43.848;25.958;2022-07-23T10:37:22;11.90;;;4.53;;
22334;SDS011;11335;43.848;25.958;2022-07-23T10:40:13;11.05;;;4.95;;
22334;SDS011;11335;43.848;25.958;2022-07-23T10:43:08;8.07;;;4.22;;
22334;SDS011;11335;43.848;25.958;2022-07-23T10:49:43;10.00;;;4.53;;
22334;SDS011;11335;43.848;25.958;2022-07-23T10:52:29;10.98;;;4.22;;
22334;SDS011;11335;43.848;25.958;2022-07-23T10:58:06;14.85;;;5.30;;
22334;SDS011;11335;43.848;25.958;2022-07-23T11:00:52;9.77;;;4.43;;
22334;SDS011;11335;43.848;25.958;2022-07-23T11:03:38;14.05;;;4.93;;
22334;SDS011;11335;43.848;25.958;2022-07-23T11:06:30;7.45;;;4.40;;
22334;SDS011;11335;43.848;25.958;2022-07-23T11:09:42;7.00;;;4.40;;
22334;SDS011;11335;43.848;25.958;2022-07-23T11:15:15;9.63;;;4.82;;
22334;SDS011;11335;43.848;25.958;2022-07-23T11:18:01;7.68;;;4.28;;
22334;SDS011;11335;43.848;25.958;2022-07-23T11:20:47;12.70;;;5.15;;
22334;SDS011;11335;43.848;25.958;2022-07-23T11:26:48;10.20;;;6.35;;
22334;SDS011;11335;43.848;25.958;2022-07-23T11:29:37;10.10;;;5.05;;
22334;SDS011;11335;43.848;25.958;2022-07-23T11:32:25;9.13;;;6.93;;
22334;SDS011;11335;43.848;25.958;2022-07-23T11:35:22;10.95;;;5.15;;
22334;SDS011;11335;43.848;25.958;2022-07-23T11:38:20;11.18;;;5.53;;
22334;SDS011;11335;43.848;25.958;2022-07-23T11:41:08;8.80;;;5.28;;
22334;SDS011;11335;43.848;25.958;2022-07-23T11:43:55;6.70;;;4.70;;
22334;SDS011;11335;43.848;25.958;2022-07-23T11:46:41;9.15;;;4.82;;
22334;SDS011;11335;43.848;25.958;2022-07-23T11:49:56;12.25;;;5.30;;
22334;SDS011;11335;43.848;25.958;2022-07-23T11:52:46;11.25;;;4.85;;
22334;SDS011;11335;43.848;25.958;2022-07-23T11:55:32;10.13;;;5.15;;
22334;SDS011;11335;43.848;25.958;2022-07-23T11:58:18;7.72;;;4.72;;
22334;SDS011;11335;43.848;25.958;2022-07-23T12:01:04;8.02;;;4.93;;
22334;SDS011;11335;43.848;25.958;2022-07-23T12:03:50;11.90;;;5.18;;
22334;SDS011;11335;43.848;25.958;2022-07-23T12:06:37;8.57;;;4.90;;
22334;SDS011;11335;43.848;25.958;2022-07-23T12:09:23;9.30;;;4.82;;
22334;SDS011;11335;43.848;25.958;2022-07-23T12:12:09;9.77;;;5.18;;
22334;SDS011;11335;43.848;25.958;2022-07-23T12:14:56;12.77;;;5.18;;
22334;SDS011;11335;43.848;25.958;2022-07-23T12:17:44;6.35;;;4.57;;
22334;SDS011;11335;43.848;25.958;2022-07-23T12:20:33;10.07;;;4.80;;
22334;SDS011;11335;43.848;25.958;2022-07-23T12:23:22;6.35;;;4.88;;
22334;SDS011;11335;43.848;25.958;2022-07-23T12:26:09;7.00;;;4.88;;
22334;SDS011;11335;43.848;25.958;2022-07-23T12:28:57;9.48;;;4.90;;
22334;SDS011;11335;43.848;25.958;2022-07-23T12:31:42;10.35;;;5.28;;
22334;SDS011;11335;43.848;25.958;2022-07-23T12:34:28;13.00;;;4.90;;
22334;SDS011;11335;43.848;25.958;2022-07-23T12:37:30;9.50;;;5.10;;
22334;SDS011;11335;43.848;25.958;2022-07-23T12:43:31;9.00;;;4.80;;
22334;SDS011;11335;43.848;25.958;2022-07-23T12:46:28;12.98;;;4.80;;
22334;SDS011;11335;43.848;25.958;2022-07-23T12:49:25;10.30;;;4.80;;
22334;SDS011;11335;43.848;25.958;2022-07-23T12:52:15;7.93;;;4.55;;
22334;SDS011;11335;43.848;25.958;2022-07-23T12:55:01;8.50;;;5.18;;
22334;SDS011;11335;43.848;25.958;2022-07-23T12:57:47;8.20;;;4.95;;
22334;SDS011;11335;43.848;25.958;2022-07-23T13:00:48;11.13;;;5.28;;
22334;SDS011;11335;43.848;25.958;2022-07-23T13:06:56;10.00;;;4.80;;
22334;SDS011;11335;43.848;25.958;2022-07-23T13:09:48;8.30;;;4.80;;
22334;SDS011;11335;43.848;25.958;2022-07-23T13:12:34;6.82;;;5.22;;
22334;SDS011;11335;43.848;25.958;2022-07-23T13:15:19;8.80;;;5.07;;
22334;SDS011;11335;43.848;25.958;2022-07-23T13:18:05;12.52;;;4.60;;
22334;SDS011;11335;43.848;25.958;2022-07-23T13:20:51;6.32;;;4.90;;
22334;SDS011;11335;43.848;25.958;2022-07-23T13:23:37;8.80;;;5.00;;
22334;SDS011;11335;43.848;25.958;2022-07-23T13:26:23;10.85;;;4.90;;
22334;SDS011;11335;43.848;25.958;2022-07-23T13:29:10;9.95;;;5.25;;
22334;SDS011;11335;43.848;25.958;2022-07-23T13:31:56;10.10;;;4.80;;
22334;SDS011;11335;43.848;25.958;2022-07-23T13:34:41;10.77;;;5.80;;
22334;SDS011;11335;43.848;25.958;2022-07-23T13:37:28;9.68;;;5.35;;
22334;SDS011;11335;43.848;25.958;2022-07-23T13:40:13;11.68;;;5.20;;
22334;SDS011;11335;43.848;25.958;2022-07-23T13:43:00;10.23;;;5.63;;
22334;SDS011;11335;43.848;25.958;2022-07-23T13:45:46;9.20;;;5.53;;
22334;SDS011;11335;43.848;25.958;2022-07-23T13:48:32;11.05;;;5.50;;
22334;SDS011;11335;43.848;25.958;2022-07-23T13:51:18;11.38;;;5.60;;
22334;SDS011;11335;43.848;25.958;2022-07-23T13:54:03;13.88;;;5.82;;
22334;SDS011;11335;43.848;25.958;2022-07-23T13:56:49;13.98;;;5.75;;
22334;SDS011;11335;43.848;25.958;2022-07-23T13:59:35;9.38;;;5.35;;
22334;SDS011;11335;43.848;25.958;2022-07-23T14:02:21;13.98;;;5.35;;
22334;SDS011;11335;43.848;25.958;2022-07-23T14:05:09;8.20;;;4.90;;
22334;SDS011;11335;43.848;25.958;2022-07-23T14:07:56;9.55;;;5.50;;
22334;SDS011;11335;43.848;25.958;2022-07-23T14:10:42;11.65;;;5.45;;
22334;SDS011;11335;43.848;25.958;2022-07-23T14:13:28;8.60;;;5.50;;
22334;SDS011;11335;43.848;25.958;2022-07-23T14:16:13;7.93;;;5.00;;
22334;SDS011;11335;43.848;25.958;2022-07-23T14:18:59;10.52;;;5.25;;
22334;SDS011;11335;43.848;25.958;2022-07-23T14:21:45;9.35;;;5.55;;
22334;SDS011;11335;43.848;25.958;2022-07-23T14:24:31;11.38;;;5.10;;
22334;SDS011;11335;43.848;25.958;2022-07-23T14:27:16;10.85;;;5.00;;
22334;SDS011;11335;43.848;25.958;2022-07-23T14:30:03;7.50;;;5.30;;
22334;SDS011;11335;43.848;25.958;2022-07-23T14:32:50;11.38;;;5.57;;
22334;SDS011;11335;43.848;25.958;2022-07-23T14:35:38;15.88;;;5.05;;
22334;SDS011;11335;43.848;25.958;2022-07-23T14:38:24;8.10;;;5.07;;
22334;SDS011;11335;43.848;25.958;2022-07-23T14:41:10;10.35;;;5.05;;
22334;SDS011;11335;43.848;25.958;2022-07-23T14:43:56;7.70;;;5.35;;
22334;SDS011;11335;43.848;25.958;2022-07-23T14:46:42;13.07;;;5.30;;
22334;SDS011;11335;43.848;25.958;2022-07-23T14:49:28;13.52;;;5.47;;
22334;SDS011;11335;43.848;25.958;2022-07-23T14:52:13;11.73;;;5.43;;
22334;SDS011;11335;43.848;25.958;2022-07-23T14:54:59;13.43;;;4.70;;
22334;SDS011;11335;43.848;25.958;2022-07-23T14:57:45;9.07;;;5.18;;
22334;SDS011;11335;43.848;25.958;2022-07-23T15:00:31;11.93;;;5.35;;
22334;SDS011;11335;43.848;25.958;2022-07-23T15:03:17;9.20;;;4.93;;
22334;SDS011;11335;43.848;25.958;2022-07-23T15:06:03;10.55;;;5.32;;
22334;SDS011;11335;43.848;25.958;2022-07-23T15:08:49;9.18;;;5.22;;
22334;SDS011;11335;43.848;25.958;2022-07-23T15:11:35;9.80;;;4.50;;
22334;SDS011;11335;43.848;25.958;2022-07-23T15:14:23;8.35;;;5.28;;
22334;SDS011;11335;43.848;25.958;2022-07-23T15:17:08;11.07;;;5.53;;
22334;SDS011;11335;43.848;25.958;2022-07-23T15:19:54;10.85;;;5.82;;
22334;SDS011;11335;43.848;25.958;2022-07-23T15:22:40;14.55;;;5.70;;
22334;SDS011;11335;43.848;25.958;2022-07-23T15:25:26;10.55;;;5.38;;
22334;SDS011;11335;43.848;25.958;2022-07-23T15:28:11;11.45;;;5.72;;
22334;SDS011;11335;43.848;25.958;2022-07-23T15:30:57;11.10;;;5.35;;
22334;SDS011;11335;43.848;25.958;2022-07-23T15:33:43;10.38;;;5.22;;
22334;SDS011;11335;43.848;25.958;2022-07-23T15:36:29;11.80;;;6.25;;
22334;SDS011;11335;43.848;25.958;2022-07-23T15:39:14;17.42;;;6.00;;
22334;SDS011;11335;43.848;25.958;2022-07-23T15:42:01;8.30;;;5.15;;
22334;SDS011;11335;43.848;25.958;2022-07-23T15:44:47;8.50;;;4.88;;
22334;SDS011;11335;43.848;25.958;2022-07-23T15:47:33;12.80;;;5.43;;
22334;SDS011;11335;43.848;25.958;2022-07-23T15:50:19;36.38;;;18.98;;
22334;SDS011;11335;43.848;25.958;2022-07-23T15:53:05;35.85;;;17.42;;
22334;SDS011;11335;43.848;25.958;2022-07-23T15:55:51;15.10;;;7.90;;
22334;SDS011;11335;43.848;25.958;2022-07-23T15:58:37;11.10;;;5.55;;
22334;SDS011;11335;43.848;25.958;2022-07-23T16:01:23;10.48;;;5.63;;
22334;SDS011;11335;43.848;25.958;2022-07-23T16:04:09;8.98;;;5.50;;
22334;SDS011;11335;43.848;25.958;2022-07-23T16:06:56;9.15;;;6.20;;
22334;SDS011;11335;43.848;25.958;2022-07-23T16:09:42;15.00;;;5.72;;
22334;SDS011;11335;43.848;25.958;2022-07-23T16:12:28;10.80;;;5.40;;
22334;SDS011;11335;43.848;25.958;2022-07-23T16:15:14;11.38;;;6.00;;
22334;SDS011;11335;43.848;25.958;2022-07-23T16:18:00;12.05;;;5.80;;
22334;SDS011;11335;43.848;25.958;2022-07-23T16:20:46;11.10;;;6.38;;
22334;SDS011;11335;43.848;25.958;2022-07-23T16:23:32;10.90;;;5.43;;
22334;SDS011;11335;43.848;25.958;2022-07-23T16:26:18;10.07;;;5.90;;
22334;SDS011;11335;43.848;25.958;2022-07-23T16:29:05;11.57;;;5.90;;
22334;SDS011;11335;43.848;25.958;2022-07-23T16:31:51;10.30;;;5.88;;
22334;SDS011;11335;43.848;25.958;2022-07-23T16:34:37;11.38;;;5.78;;
22334;SDS011;11335;43.848;25.958;2022-07-23T16:37:23;10.25;;;6.07;;
22334;SDS011;11335;43.848;25.958;2022-07-23T16:40:09;10.52;;;5.55;;
22334;SDS011;11335;43.848;25.958;2022-07-23T16:42:56;9.50;;;5.32;;
22334;SDS011;11335;43.848;25.958;2022-07-23T16:45:43;11.30;;;5.75;;
22334;SDS011;11335;43.848;25.958;2022-07-23T16:48:30;11.57;;;5.20;;
22334;SDS011;11335;43.848;25.958;2022-07-23T16:51:16;11.30;;;5.78;;
22334;SDS011;11335;43.848;25.958;2022-07-23T16:54:02;12.50;;;5.85;;